Date,TemperatureHighF,TemperatureAvgF,TemperatureLowF,DewpointHighF,DewpointAvgF,DewpointLowF,HumidityHigh,HumidityAvg,HumidityLow,PressureMaxIn,PressureMinIn,WindSpeedMaxMPH,WindSpeedAvgMPH,GustSpeedMaxMPH,PrecipitationSumIn
2013-9-1,92.5,75.4,65.3,73.8,69.8,65.0,99,85,48,29.55,29.42,6,1,14,0.33
2013-9-2,88.9,73.3,67.6,77.6,70.1,64.3,99,90,63,29.48,29.34,5,1,14,0.06
2013-9-3,74.7,65.3,59.5,64.3,60.7,57.5,99,86,60,29.61,29.45,6,2,16,0.01
2013-9-4,86.9,69.1,51.6,65.4,58.6,50.0,99,73,34,29.65,29.60,8,2,20,0.07
2013-9-5,73.8,62.7,47.7,65.2,52.4,42.6,99,73,39,29.88,29.63,6,1,14,0.00
2013-9-6,75.9,58.6,42.6,56.7,48.6,42.3,99,75,35,29.94,29.78,4,1,10,0.00
2013-9-7,67.5,59.7,50.9,64.5,57.5,50.6,99,93,76,29.78,29.55,3,1,7,0.12
2013-9-8,74.5,62.8,47.7,63.0,53.4,42.4,99,76,34,29.78,29.51,6,2,19,0.12
2013-9-9,80.1,61.1,45.5,62.8,52.9,44.5,99,77,43,29.83,29.67,8,2,17,0.00
2013-9-10,93.9,76.5,65.3,79.9,70.9,59.7,99,84,59,29.74,29.59,9,3,19,0.81
2013-9-11,98.4,82.1,70.7,81.0,74.7,69.9,99,80,48,29.72,29.59,6,2,11,0.00
2013-9-12,77.4,70.1,62.4,73.4,68.3,61.8,99,94,81,29.61,29.40,6,1,11,0.12
2013-9-13,63.0,56.4,50.9,62.1,55.8,50.6,99,98,92,29.68,29.40,3,1,11,0.80
2013-9-14,71.1,54.4,43.9,67.4,49.2,43.4,99,84,48,30.00,29.66,4,1,15,3.66
2013-9-15,70.0,56.6,43.5,58.7,51.3,43.0,99,84,54,29.99,29.87,4,1,14,0.01
2013-9-16,61.0,52.6,45.0,55.3,50.5,43.8,99,93,63,30.21,29.90,6,1,13,0.14
2013-9-17,71.4,52.2,35.6,50.8,42.6,34.8,99,76,33,30.32,30.14,4,1,11,0.01
2013-9-18,79.2,57.8,42.4,55.6,48.3,42.2,99,76,33,30.14,29.95,5,1,10,0.00
2013-9-19,85.1,63.7,46.2,60.3,52.9,45.2,99,73,41,29.97,29.86,4,1,10,0.00
2013-9-20,83.8,65.1,49.6,63.4,54.2,49.0,99,74,33,30.62,30.53,6,1,10,0.00
2013-9-21,86.2,69.5,50.5,67.9,61.6,50.3,99,80,40,30.58,29.89,7,2,18,0.47
2013-9-22,62.6,54.2,49.5,56.4,48.7,42.5,99,83,53,30.26,29.96,6,2,16,0.01
2013-9-23,65.8,52.5,41.2,49.4,44.5,40.9,99,76,47,30.40,30.24,4,1,12,0.00
2013-9-24,71.1,52.0,37.0,53.2,44.8,36.1,99,80,43,30.37,30.24,4,1,14,0.00
2013-9-25,76.1,54.7,38.8,58.2,47.1,38.6,99,80,38,30.26,30.21,3,1,9,0.00
2013-9-26,77.2,56.7,41.4,58.8,49.8,-5.6,99,81,48,30.40,30.25,5,1,11,0.00
2013-9-27,76.3,56.7,41.4,60.7,50.8,41.1,99,83,54,30.51,30.40,4,1,11,0.00
2013-9-28,77.0,58.4,44.2,58.9,52.0,43.7,99,82,48,30.57,30.44,6,2,14,0.00
2013-9-29,78.8,61.2,47.7,56.9,52.7,47.2,99,78,43,30.45,30.27,8,2,17,0.01
2013-9-30,88.7,64.9,51.1,64.2,57.0,50.7,99,79,40,30.29,30.20,4,1,9,0.00